sensor_id;sensor_type;location;lat;lon;timestamp;P1;durP1;ratioP1;P2;durP2;ratioP2
76377;SDS011;65200;49.500;8.654;2023-06-10T00:00:15;3.95;;;2.70;;
76377;SDS011;65200;49.500;8.654;2023-06-10T00:02:42;3.78;;;3.05;;
76377;SDS011;65200;49.500;8.654;2023-06-10T00:05:09;4.82;;;2.92;;
76377;SDS011;65200;49.500;8.654;2023-06-10T00:07:36;3.67;;;2.70;;
76377;SDS011;65200;49.500;8.654;2023-06-10T00:10:03;4.18;;;2.90;;
76377;SDS011;65200;49.500;8.654;2023-06-10T00:12:30;5.45;;;3.00;;
76377;SDS011;65200;49.500;8.654;2023-06-10T00:15:03;4.90;;;3.08;;
76377;SDS011;65200;49.500;8.654;2023-06-10T00:17:30;5.63;;;3.20;;
76377;SDS011;65200;49.500;8.654;2023-06-10T00:19:57;5.63;;;3.78;;
76377;SDS011;65200;49.500;8.654;2023-06-10T00:22:24;6.88;;;4.35;;
76377;SDS011;65200;49.500;8.654;2023-06-10T00:24:54;6.05;;;4.63;;
76377;SDS011;65200;49.500;8.654;2023-06-10T00:27:21;6.18;;;4.10;;
76377;SDS011;65200;49.500;8.654;2023-06-10T00:29:47;5.50;;;4.03;;
76377;SDS011;65200;49.500;8.654;2023-06-10T00:32:15;4.80;;;3.67;;
76377;SDS011;65200;49.500;8.654;2023-06-10T00:34:41;4.43;;;3.65;;
76377;SDS011;65200;49.500;8.654;2023-06-10T00:37:08;9.65;;;4.97;;
76377;SDS011;65200;49.500;8.654;2023-06-10T00:39:34;5.15;;;3.83;;
76377;SDS011;65200;49.500;8.654;2023-06-10T00:42:00;5.07;;;3.97;;
76377;SDS011;65200;49.500;8.654;2023-06-10T00:44:27;4.88;;;3.78;;
76377;SDS011;65200;49.500;8.654;2023-06-10T00:46:53;8.70;;;5.47;;
76377;SDS011;65200;49.500;8.654;2023-06-10T00:49:22;6.93;;;4.30;;
76377;SDS011;65200;49.500;8.654;2023-06-10T00:51:48;4.45;;;3.53;;
76377;SDS011;65200;49.500;8.654;2023-06-10T00:54:15;6.53;;;3.75;;
76377;SDS011;65200;49.500;8.654;2023-06-10T00:56:42;5.35;;;4.15;;
76377;SDS011;65200;49.500;8.654;2023-06-10T00:59:09;5.90;;;4.10;;
76377;SDS011;65200;49.500;8.654;2023-06-10T01:01:36;6.07;;;4.10;;
76377;SDS011;65200;49.500;8.654;2023-06-10T01:04:04;6.30;;;3.83;;
76377;SDS011;65200;49.500;8.654;2023-06-10T01:06:33;5.30;;;3.67;;
76377;SDS011;65200;49.500;8.654;2023-06-10T01:09:13;7.93;;;3.22;;
76377;SDS011;65200;49.500;8.654;2023-06-10T01:11:46;5.47;;;4.72;;
76377;SDS011;65200;49.500;8.654;2023-06-10T01:16:45;4.85;;;3.67;;
76377;SDS011;65200;49.500;8.654;2023-06-10T01:19:13;4.55;;;3.60;;
76377;SDS011;65200;49.500;8.654;2023-06-10T01:21:44;5.28;;;3.80;;
76377;SDS011;65200;49.500;8.654;2023-06-10T01:24:13;6.63;;;3.22;;
76377;SDS011;65200;49.500;8.654;2023-06-10T01:26:43;5.22;;;3.72;;
76377;SDS011;65200;49.500;8.654;2023-06-10T01:29:14;5.35;;;3.38;;
76377;SDS011;65200;49.500;8.654;2023-06-10T01:31:47;4.53;;;3.55;;
76377;SDS011;65200;49.500;8.654;2023-06-10T01:34:17;4.32;;;3.50;;
76377;SDS011;65200;49.500;8.654;2023-06-10T01:36:46;5.68;;;4.22;;
76377;SDS011;65200;49.500;8.654;2023-06-10T01:39:14;6.18;;;4.72;;
76377;SDS011;65200;49.500;8.654;2023-06-10T01:41:42;4.40;;;3.20;;
76377;SDS011;65200;49.500;8.654;2023-06-10T01:44:08;4.18;;;3.33;;
76377;SDS011;65200;49.500;8.654;2023-06-10T01:46:35;6.57;;;4.55;;
76377;SDS011;65200;49.500;8.654;2023-06-10T01:49:02;6.60;;;4.25;;
76377;SDS011;65200;49.500;8.654;2023-06-10T01:51:28;5.80;;;4.60;;
76377;SDS011;65200;49.500;8.654;2023-06-10T01:53:57;4.65;;;3.83;;
76377;SDS011;65200;49.500;8.654;2023-06-10T01:56:24;5.50;;;3.72;;
76377;SDS011;65200;49.500;8.654;2023-06-10T01:58:50;7.85;;;5.57;;
76377;SDS011;65200;49.500;8.654;2023-06-10T02:01:20;5.60;;;3.83;;
76377;SDS011;65200;49.500;8.654;2023-06-10T02:03:46;4.40;;;3.50;;
76377;SDS011;65200;49.500;8.654;2023-06-10T02:06:12;4.32;;;3.88;;
76377;SDS011;65200;49.500;8.654;2023-06-10T02:08:39;6.45;;;4.05;;
76377;SDS011;65200;49.500;8.654;2023-06-10T02:11:07;5.20;;;3.35;;
76377;SDS011;65200;49.500;8.654;2023-06-10T02:13:33;4.70;;;3.45;;
76377;SDS011;65200;49.500;8.654;2023-06-10T02:16:00;5.70;;;3.83;;
76377;SDS011;65200;49.500;8.654;2023-06-10T02:18:27;4.18;;;3.42;;
76377;SDS011;65200;49.500;8.654;2023-06-10T02:20:54;5.50;;;3.75;;
76377;SDS011;65200;49.500;8.654;2023-06-10T02:23:20;4.63;;;3.38;;
76377;SDS011;65200;49.500;8.654;2023-06-10T02:25:47;4.55;;;3.50;;
76377;SDS011;65200;49.500;8.654;2023-06-10T02:28:14;5.60;;;3.75;;
76377;SDS011;65200;49.500;8.654;2023-06-10T02:30:41;4.97;;;3.95;;
76377;SDS011;65200;49.500;8.654;2023-06-10T02:33:07;5.10;;;4.05;;
76377;SDS011;65200;49.500;8.654;2023-06-10T02:35:35;3.72;;;3.22;;
76377;SDS011;65200;49.500;8.654;2023-06-10T02:38:02;5.00;;;3.47;;
76377;SDS011;65200;49.500;8.654;2023-06-10T02:40:29;6.00;;;3.60;;
76377;SDS011;65200;49.500;8.654;2023-06-10T02:42:55;4.50;;;3.63;;
76377;SDS011;65200;49.500;8.654;2023-06-10T02:45:23;4.55;;;3.50;;
76377;SDS011;65200;49.500;8.654;2023-06-10T02:47:49;4.47;;;3.08;;
76377;SDS011;65200;49.500;8.654;2023-06-10T02:50:16;4.57;;;2.83;;
76377;SDS011;65200;49.500;8.654;2023-06-10T02:52:43;4.65;;;3.63;;
76377;SDS011;65200;49.500;8.654;2023-06-10T02:55:09;6.18;;;3.40;;
76377;SDS011;65200;49.500;8.654;2023-06-10T02:57:36;6.38;;;3.83;;
76377;SDS011;65200;49.500;8.654;2023-06-10T03:00:02;5.82;;;3.85;;
76377;SDS011;65200;49.500;8.654;2023-06-10T03:02:35;5.13;;;3.72;;
76377;SDS011;65200;49.500;8.654;2023-06-10T03:05:03;3.70;;;3.30;;
76377;SDS011;65200;49.500;8.654;2023-06-10T03:07:30;3.70;;;3.28;;
76377;SDS011;65200;49.500;8.654;2023-06-10T03:09:57;4.72;;;3.40;;
76377;SDS011;65200;49.500;8.654;2023-06-10T03:12:23;4.22;;;3.17;;
76377;SDS011;65200;49.500;8.654;2023-06-10T03:14:50;6.07;;;3.42;;
76377;SDS011;65200;49.500;8.654;2023-06-10T03:17:16;3.60;;;2.78;;
76377;SDS011;65200;49.500;8.654;2023-06-10T03:19:44;4.70;;;3.63;;
76377;SDS011;65200;49.500;8.654;2023-06-10T03:22:11;3.97;;;3.53;;
76377;SDS011;65200;49.500;8.654;2023-06-10T03:27:05;4.22;;;3.40;;
76377;SDS011;65200;49.500;8.654;2023-06-10T03:29:32;5.13;;;4.05;;
76377;SDS011;65200;49.500;8.654;2023-06-10T03:31:58;4.88;;;3.50;;
76377;SDS011;65200;49.500;8.654;2023-06-10T03:34:25;4.57;;;3.28;;
76377;SDS011;65200;49.500;8.654;2023-06-10T03:36:53;5.32;;;4.78;;
76377;SDS011;65200;49.500;8.654;2023-06-10T03:39:19;4.35;;;3.88;;
76377;SDS011;65200;49.500;8.654;2023-06-10T03:41:46;5.60;;;5.10;;
76377;SDS011;65200;49.500;8.654;2023-06-10T03:44:13;4.18;;;3.40;;
76377;SDS011;65200;49.500;8.654;2023-06-10T03:46:39;5.18;;;3.55;;
76377;SDS011;65200;49.500;8.654;2023-06-10T03:49:06;4.75;;;3.65;;
76377;SDS011;65200;49.500;8.654;2023-06-10T03:51:32;5.55;;;4.13;;
76377;SDS011;65200;49.500;8.654;2023-06-10T03:54:00;6.03;;;4.78;;
76377;SDS011;65200;49.500;8.654;2023-06-10T03:56:26;4.88;;;3.60;;
76377;SDS011;65200;49.500;8.654;2023-06-10T03:58:53;5.15;;;3.67;;
76377;SDS011;65200;49.500;8.654;2023-06-10T04:01:20;5.00;;;3.85;;
76377;SDS011;65200;49.500;8.654;2023-06-10T04:03:48;4.22;;;3.20;;
76377;SDS011;65200;49.500;8.654;2023-06-10T04:06:16;5.05;;;3.85;;
76377;SDS011;65200;49.500;8.654;2023-06-10T04:08:43;4.65;;;3.35;;
76377;SDS011;65200;49.500;8.654;2023-06-10T04:11:11;5.40;;;3.70;;
76377;SDS011;65200;49.500;8.654;2023-06-10T04:13:37;4.40;;;3.00;;
76377;SDS011;65200;49.500;8.654;2023-06-10T04:16:04;4.68;;;3.42;;
76377;SDS011;65200;49.500;8.654;2023-06-10T04:18:31;5.20;;;3.95;;
76377;SDS011;65200;49.500;8.654;2023-06-10T04:20:57;4.70;;;3.28;;
76377;SDS011;65200;49.500;8.654;2023-06-10T04:23:24;4.85;;;3.67;;
76377;SDS011;65200;49.500;8.654;2023-06-10T04:25:51;4.75;;;3.72;;
76377;SDS011;65200;49.500;8.654;2023-06-10T04:28:18;7.63;;;4.00;;
76377;SDS011;65200;49.500;8.654;2023-06-10T04:30:45;5.63;;;4.13;;
76377;SDS011;65200;49.500;8.654;2023-06-10T04:33:11;4.78;;;3.50;;
76377;SDS011;65200;49.500;8.654;2023-06-10T04:35:38;5.53;;;3.58;;
76377;SDS011;65200;49.500;8.654;2023-06-10T04:38:04;7.32;;;3.63;;
76377;SDS011;65200;49.500;8.654;2023-06-10T04:40:30;4.32;;;3.38;;
76377;SDS011;65200;49.500;8.654;2023-06-10T04:42:57;5.22;;;3.88;;
76377;SDS011;65200;49.500;8.654;2023-06-10T04:45:25;4.70;;;3.70;;
76377;SDS011;65200;49.500;8.654;2023-06-10T04:50:20;4.95;;;4.45;;
76377;SDS011;65200;49.500;8.654;2023-06-10T04:52:46;5.20;;;3.63;;
76377;SDS011;65200;49.500;8.654;2023-06-10T04:55:13;4.90;;;3.47;;
76377;SDS011;65200;49.500;8.654;2023-06-10T04:57:39;5.43;;;3.58;;
76377;SDS011;65200;49.500;8.654;2023-06-10T05:00:06;6.47;;;3.53;;
76377;SDS011;65200;49.500;8.654;2023-06-10T05:02:35;4.00;;;3.00;;
76377;SDS011;65200;49.500;8.654;2023-06-10T05:05:01;5.43;;;3.58;;
76377;SDS011;65200;49.500;8.654;2023-06-10T05:07:28;4.75;;;3.95;;
76377;SDS011;65200;49.500;8.654;2023-06-10T05:09:54;4.78;;;3.30;;
76377;SDS011;65200;49.500;8.654;2023-06-10T05:12:21;4.47;;;3.45;;
76377;SDS011;65200;49.500;8.654;2023-06-10T05:14:47;4.57;;;3.83;;
76377;SDS011;65200;49.500;8.654;2023-06-10T05:17:13;6.70;;;4.07;;
76377;SDS011;65200;49.500;8.654;2023-06-10T05:19:41;4.85;;;3.53;;
76377;SDS011;65200;49.500;8.654;2023-06-10T05:22:08;4.05;;;3.45;;
76377;SDS011;65200;49.500;8.654;2023-06-10T05:24:34;4.63;;;3.53;;
76377;SDS011;65200;49.500;8.654;2023-06-10T05:27:01;5.30;;;4.00;;
76377;SDS011;65200;49.500;8.654;2023-06-10T05:29:27;5.18;;;3.50;;
76377;SDS011;65200;49.500;8.654;2023-06-10T05:31:54;5.15;;;3.65;;
76377;SDS011;65200;49.500;8.654;2023-06-10T05:34:22;4.82;;;3.58;;
76377;SDS011;65200;49.500;8.654;2023-06-10T05:36:50;8.02;;;4.65;;
76377;SDS011;65200;49.500;8.654;2023-06-10T05:39:16;5.90;;;4.25;;
76377;SDS011;65200;49.500;8.654;2023-06-10T05:41:43;5.97;;;4.15;;
76377;SDS011;65200;49.500;8.654;2023-06-10T05:44:09;4.97;;;4.18;;
76377;SDS011;65200;49.500;8.654;2023-06-10T05:46:36;4.85;;;4.15;;
76377;SDS011;65200;49.500;8.654;2023-06-10T05:49:02;7.65;;;4.38;;
76377;SDS011;65200;49.500;8.654;2023-06-10T05:51:29;11.27;;;4.60;;
76377;SDS011;65200;49.500;8.654;2023-06-10T05:53:56;5.07;;;4.53;;
76377;SDS011;65200;49.500;8.654;2023-06-10T05:56:23;6.47;;;4.57;;
76377;SDS011;65200;49.500;8.654;2023-06-10T05:58:50;5.65;;;4.00;;
76377;SDS011;65200;49.500;8.654;2023-06-10T06:01:17;5.50;;;3.63;;
76377;SDS011;65200;49.500;8.654;2023-06-10T06:03:43;6.95;;;4.55;;
76377;SDS011;65200;49.500;8.654;2023-06-10T06:06:10;5.57;;;4.10;;
76377;SDS011;65200;49.500;8.654;2023-06-10T06:08:36;6.15;;;4.20;;
76377;SDS011;65200;49.500;8.654;2023-06-10T06:11:04;6.78;;;4.60;;
76377;SDS011;65200;49.500;8.654;2023-06-10T06:13:31;5.80;;;4.28;;
76377;SDS011;65200;49.500;8.654;2023-06-10T06:15:57;6.50;;;4.45;;
76377;SDS011;65200;49.500;8.654;2023-06-10T06:18:23;6.20;;;4.60;;
76377;SDS011;65200;49.500;8.654;2023-06-10T06:20:50;9.98;;;5.38;;
76377;SDS011;65200;49.500;8.654;2023-06-10T06:23:16;6.22;;;4.90;;
76377;SDS011;65200;49.500;8.654;2023-06-10T06:25:43;6.13;;;4.72;;
76377;SDS011;65200;49.500;8.654;2023-06-10T06:28:10;6.57;;;4.85;;
76377;SDS011;65200;49.500;8.654;2023-06-10T06:30:37;5.78;;;4.35;;
76377;SDS011;65200;49.500;8.654;2023-06-10T06:33:03;9.15;;;5.63;;
76377;SDS011;65200;49.500;8.654;2023-06-10T06:35:30;5.55;;;4.70;;
76377;SDS011;65200;49.500;8.654;2023-06-10T06:37:57;7.97;;;4.70;;
76377;SDS011;65200;49.500;8.654;2023-06-10T06:40:24;6.22;;;5.15;;
76377;SDS011;65200;49.500;8.654;2023-06-10T06:42:51;8.88;;;5.00;;
76377;SDS011;65200;49.500;8.654;2023-06-10T06:45:19;6.72;;;4.80;;
76377;SDS011;65200;49.500;8.654;2023-06-10T06:47:45;6.63;;;4.80;;
76377;SDS011;65200;49.500;8.654;2023-06-10T06:50:12;5.78;;;4.57;;
76377;SDS011;65200;49.500;8.654;2023-06-10T06:52:39;5.72;;;4.47;;
76377;SDS011;65200;49.500;8.654;2023-06-10T06:55:05;7.57;;;4.65;;
76377;SDS011;65200;49.500;8.654;2023-06-10T06:57:32;8.18;;;5.10;;
76377;SDS011;65200;49.500;8.654;2023-06-10T06:59:58;8.80;;;4.95;;
76377;SDS011;65200;49.500;8.654;2023-06-10T07:02:26;6.57;;;4.82;;
76377;SDS011;65200;49.500;8.654;2023-06-10T07:04:53;7.90;;;5.45;;
76377;SDS011;65200;49.500;8.654;2023-06-10T07:07:21;8.38;;;5.22;;
76377;SDS011;65200;49.500;8.654;2023-06-10T07:09:47;7.30;;;5.70;;
76377;SDS011;65200;49.500;8.654;2023-06-10T07:12:13;6.15;;;4.35;;
76377;SDS011;65200;49.500;8.654;2023-06-10T07:14:40;5.63;;;4.18;;
76377;SDS011;65200;49.500;8.654;2023-06-10T07:17:06;6.22;;;4.45;;
76377;SDS011;65200;49.500;8.654;2023-06-10T07:19:34;5.72;;;4.72;;
76377;SDS011;65200;49.500;8.654;2023-06-10T07:22:01;5.38;;;4.47;;
76377;SDS011;65200;49.500;8.654;2023-06-10T07:24:27;5.93;;;4.95;;
76377;SDS011;65200;49.500;8.654;2023-06-10T07:26:54;5.90;;;4.43;;
76377;SDS011;65200;49.500;8.654;2023-06-10T07:29:20;8.02;;;5.80;;
76377;SDS011;65200;49.500;8.654;2023-06-10T07:31:46;4.50;;;3.75;;
76377;SDS011;65200;49.500;8.654;2023-06-10T07:34:13;6.35;;;4.32;;
76377;SDS011;65200;49.500;8.654;2023-06-10T07:36:41;5.40;;;3.95;;
76377;SDS011;65200;49.500;8.654;2023-06-10T07:39:07;5.15;;;4.10;;
76377;SDS011;65200;49.500;8.654;2023-06-10T07:41:33;5.15;;;4.13;;
76377;SDS011;65200;49.500;8.654;2023-06-10T07:44:00;4.32;;;3.80;;
76377;SDS011;65200;49.500;8.654;2023-06-10T07:46:26;5.50;;;4.13;;
76377;SDS011;65200;49.500;8.654;2023-06-10T07:48:53;4.10;;;3.45;;
76377;SDS011;65200;49.500;8.654;2023-06-10T07:51:20;5.60;;;4.18;;
76377;SDS011;65200;49.500;8.654;2023-06-10T07:53:48;4.43;;;3.72;;
76377;SDS011;65200;49.500;8.654;2023-06-10T07:56:14;4.70;;;4.07;;
76377;SDS011;65200;49.500;8.654;2023-06-10T07:58:41;6.60;;;4.30;;
76377;SDS011;65200;49.500;8.654;2023-06-10T08:01:07;8.20;;;3.78;;
76377;SDS011;65200;49.500;8.654;2023-06-10T08:03:34;4.22;;;3.83;;
76377;SDS011;65200;49.500;8.654;2023-06-10T08:06:00;5.07;;;3.80;;
76377;SDS011;65200;49.500;8.654;2023-06-10T08:08:27;4.72;;;3.90;;
76377;SDS011;65200;49.500;8.654;2023-06-10T08:10:54;4.18;;;3.58;;
76377;SDS011;65200;49.500;8.654;2023-06-10T08:13:21;3.95;;;3.33;;
76377;SDS011;65200;49.500;8.654;2023-06-10T08:15:47;4.68;;;3.50;;
76377;SDS011;65200;49.500;8.654;2023-06-10T08:18:15;4.40;;;3.70;;
76377;SDS011;65200;49.500;8.654;2023-06-10T08:20:42;5.20;;;4.28;;
76377;SDS011;65200;49.500;8.654;2023-06-10T08:23:08;5.10;;;3.55;;
76377;SDS011;65200;49.500;8.654;2023-06-10T08:25:35;6.13;;;3.85;;
76377;SDS011;65200;49.500;8.654;2023-06-10T08:28:03;4.55;;;3.83;;
76377;SDS011;65200;49.500;8.654;2023-06-10T08:30:29;4.30;;;3.40;;
76377;SDS011;65200;49.500;8.654;2023-06-10T08:32:56;5.28;;;4.15;;
76377;SDS011;65200;49.500;8.654;2023-06-10T08:35:22;5.38;;;3.55;;
76377;SDS011;65200;49.500;8.654;2023-06-10T08:37:48;5.28;;;3.70;;
76377;SDS011;65200;49.500;8.654;2023-06-10T08:40:15;5.63;;;4.03;;
76377;SDS011;65200;49.500;8.654;2023-06-10T08:42:43;5.40;;;4.43;;
76377;SDS011;65200;49.500;8.654;2023-06-10T08:45:16;6.82;;;4.53;;
76377;SDS011;65200;49.500;8.654;2023-06-10T08:47:44;4.75;;;3.63;;
76377;SDS011;65200;49.500;8.654;2023-06-10T08:50:11;5.10;;;3.70;;
76377;SDS011;65200;49.500;8.654;2023-06-10T08:52:40;6.40;;;4.55;;
76377;SDS011;65200;49.500;8.654;2023-06-10T08:55:10;4.72;;;4.22;;
76377;SDS011;65200;49.500;8.654;2023-06-10T08:57:38;4.72;;;4.00;;
76377;SDS011;65200;49.500;8.654;2023-06-10T09:00:07;4.80;;;3.83;;
76377;SDS011;65200;49.500;8.654;2023-06-10T09:02:35;3.90;;;3.50;;
76377;SDS011;65200;49.500;8.654;2023-06-10T09:05:02;5.25;;;4.75;;
76377;SDS011;65200;49.500;8.654;2023-06-10T09:07:29;5.35;;;4.07;;
76377;SDS011;65200;49.500;8.654;2023-06-10T09:09:59;9.20;;;4.30;;
76377;SDS011;65200;49.500;8.654;2023-06-10T09:12:28;4.63;;;4.10;;
76377;SDS011;65200;49.500;8.654;2023-06-10T09:14:54;5.25;;;3.63;;
76377;SDS011;65200;49.500;8.654;2023-06-10T09:17:21;4.10;;;3.70;;
76377;SDS011;65200;49.500;8.654;2023-06-10T09:19:49;5.18;;;3.88;;
76377;SDS011;65200;49.500;8.654;2023-06-10T09:22:18;4.32;;;3.33;;
76377;SDS011;65200;49.500;8.654;2023-06-10T09:24:46;5.85;;;3.25;;
76377;SDS011;65200;49.500;8.654;2023-06-10T09:27:13;4.78;;;4.28;;
76377;SDS011;65200;49.500;8.654;2023-06-10T09:29:46;5.65;;;3.80;;
76377;SDS011;65200;49.500;8.654;2023-06-10T09:32:14;4.93;;;3.60;;
76377;SDS011;65200;49.500;8.654;2023-06-10T09:34:41;4.13;;;3.22;;
76377;SDS011;65200;49.500;8.654;2023-06-10T09:37:09;8.35;;;3.28;;
76377;SDS011;65200;49.500;8.654;2023-06-10T09:39:37;4.50;;;3.33;;
76377;SDS011;65200;49.500;8.654;2023-06-10T09:42:05;5.22;;;3.70;;
76377;SDS011;65200;49.500;8.654;2023-06-10T09:44:41;5.40;;;3.45;;
76377;SDS011;65200;49.500;8.654;2023-06-10T09:47:08;5.32;;;3.38;;
76377;SDS011;65200;49.500;8.654;2023-06-10T09:49:34;3.95;;;3.53;;
76377;SDS011;65200;49.500;8.654;2023-06-10T09:52:04;8.65;;;3.85;;
76377;SDS011;65200;49.500;8.654;2023-06-10T09:54:33;4.55;;;3.65;;
76377;SDS011;65200;49.500;8.654;2023-06-10T09:56:59;4.78;;;3.70;;
76377;SDS011;65200;49.500;8.654;2023-06-10T09:59:33;4.32;;;3.60;;
76377;SDS011;65200;49.500;8.654;2023-06-10T10:02:00;4.65;;;3.15;;
76377;SDS011;65200;49.500;8.654;2023-06-10T10:04:27;4.95;;;3.42;;
76377;SDS011;65200;49.500;8.654;2023-06-10T10:06:54;4.35;;;3.60;;
76377;SDS011;65200;49.500;8.654;2023-06-10T10:09:20;4.68;;;3.72;;
76377;SDS011;65200;49.500;8.654;2023-06-10T10:11:48;4.53;;;3.40;;
76377;SDS011;65200;49.500;8.654;2023-06-10T10:14:17;4.68;;;3.35;;
76377;SDS011;65200;49.500;8.654;2023-06-10T10:16:45;4.07;;;3.47;;
76377;SDS011;65200;49.500;8.654;2023-06-10T10:19:16;5.95;;;3.45;;
76377;SDS011;65200;49.500;8.654;2023-06-10T10:21:48;4.20;;;3.70;;
76377;SDS011;65200;49.500;8.654;2023-06-10T10:24:18;3.70;;;3.30;;
76377;SDS011;65200;49.500;8.654;2023-06-10T10:26:51;3.50;;;3.13;;
76377;SDS011;65200;49.500;8.654;2023-06-10T10:29:23;4.15;;;3.40;;
76377;SDS011;65200;49.500;8.654;2023-06-10T10:31:52;4.88;;;3.03;;
76377;SDS011;65200;49.500;8.654;2023-06-10T10:34:24;3.00;;;2.60;;
76377;SDS011;65200;49.500;8.654;2023-06-10T10:36:56;4.80;;;2.88;;
76377;SDS011;65200;49.500;8.654;2023-06-10T10:39:23;4.35;;;3.03;;
76377;SDS011;65200;49.500;8.654;2023-06-10T10:41:54;3.83;;;3.40;;
76377;SDS011;65200;49.500;8.654;2023-06-10T10:44:22;3.38;;;2.92;;
76377;SDS011;65200;49.500;8.654;2023-06-10T10:46:50;6.40;;;3.33;;
76377;SDS011;65200;49.500;8.654;2023-06-10T10:49:17;3.70;;;3.10;;
76377;SDS011;65200;49.500;8.654;2023-06-10T10:51:54;4.05;;;2.80;;
76377;SDS011;65200;49.500;8.654;2023-06-10T10:54:27;4.00;;;2.70;;
76377;SDS011;65200;49.500;8.654;2023-06-10T10:59:54;3.40;;;2.85;;
76377;SDS011;65200;49.500;8.654;2023-06-10T11:02:34;4.18;;;2.65;;
76377;SDS011;65200;49.500;8.654;2023-06-10T11:05:04;3.10;;;2.80;;
76377;SDS011;65200;49.500;8.654;2023-06-10T11:07:31;4.22;;;2.92;;
76377;SDS011;65200;49.500;8.654;2023-06-10T11:09:59;3.13;;;2.60;;
76377;SDS011;65200;49.500;8.654;2023-06-10T11:12:28;4.30;;;3.17;;
76377;SDS011;65200;49.500;8.654;2023-06-10T11:15:14;3.97;;;2.80;;
76377;SDS011;65200;49.500;8.654;2023-06-10T11:20:45;4.57;;;3.38;;
76377;SDS011;65200;49.500;8.654;2023-06-10T11:23:24;3.92;;;2.90;;
76377;SDS011;65200;49.500;8.654;2023-06-10T11:26:17;3.50;;;3.03;;
76377;SDS011;65200;49.500;8.654;2023-06-10T11:29:02;4.45;;;3.15;;
76377;SDS011;65200;49.500;8.654;2023-06-10T11:31:30;3.88;;;3.03;;
76377;SDS011;65200;49.500;8.654;2023-06-10T11:33:58;3.70;;;2.80;;
76377;SDS011;65200;49.500;8.654;2023-06-10T11:36:27;3.88;;;2.95;;
76377;SDS011;65200;49.500;8.654;2023-06-10T11:38:55;5.40;;;3.55;;
76377;SDS011;65200;49.500;8.654;2023-06-10T11:41:23;3.83;;;2.90;;
76377;SDS011;65200;49.500;8.654;2023-06-10T11:43:50;4.18;;;3.10;;
76377;SDS011;65200;49.500;8.654;2023-06-10T11:46:17;4.05;;;2.95;;
76377;SDS011;65200;49.500;8.654;2023-06-10T11:48:48;3.90;;;2.92;;
76377;SDS011;65200;49.500;8.654;2023-06-10T11:51:15;4.70;;;3.28;;
76377;SDS011;65200;49.500;8.654;2023-06-10T11:53:43;5.13;;;2.90;;
76377;SDS011;65200;49.500;8.654;2023-06-10T11:56:10;5.85;;;3.28;;
76377;SDS011;65200;49.500;8.654;2023-06-10T12:01:04;3.90;;;3.38;;
76377;SDS011;65200;49.500;8.654;2023-06-10T12:03:36;4.38;;;3.05;;
76377;SDS011;65200;49.500;8.654;2023-06-10T12:06:04;3.95;;;3.15;;
76377;SDS011;65200;49.500;8.654;2023-06-10T12:08:31;3.67;;;3.05;;
76377;SDS011;65200;49.500;8.654;2023-06-10T12:10:58;4.22;;;3.47;;
76377;SDS011;65200;49.500;8.654;2023-06-10T12:13:26;4.25;;;3.17;;
76377;SDS011;65200;49.500;8.654;2023-06-10T12:15:53;3.97;;;3.15;;
76377;SDS011;65200;49.500;8.654;2023-06-10T12:18:20;4.18;;;3.10;;
76377;SDS011;65200;49.500;8.654;2023-06-10T12:20:49;5.20;;;3.85;;
76377;SDS011;65200;49.500;8.654;2023-06-10T12:23:17;4.10;;;3.63;;
76377;SDS011;65200;49.500;8.654;2023-06-10T12:25:51;4.47;;;2.95;;
76377;SDS011;65200;49.500;8.654;2023-06-10T12:28:20;4.28;;;3.40;;
76377;SDS011;65200;49.500;8.654;2023-06-10T12:30:47;3.80;;;3.28;;
76377;SDS011;65200;49.500;8.654;2023-06-10T12:33:17;3.85;;;3.05;;
76377;SDS011;65200;49.500;8.654;2023-06-10T12:35:46;4.30;;;3.22;;
76377;SDS011;65200;49.500;8.654;2023-06-10T12:38:18;4.32;;;3.38;;
76377;SDS011;65200;49.500;8.654;2023-06-10T12:40:47;3.83;;;2.95;;
76377;SDS011;65200;49.500;8.654;2023-06-10T12:45:45;3.35;;;2.88;;
76377;SDS011;65200;49.500;8.654;2023-06-10T12:48:12;5.10;;;3.38;;
76377;SDS011;65200;49.500;8.654;2023-06-10T12:50:43;3.13;;;2.83;;
76377;SDS011;65200;49.500;8.654;2023-06-10T12:53:10;6.45;;;3.08;;
76377;SDS011;65200;49.500;8.654;2023-06-10T12:55:39;3.70;;;3.17;;
76377;SDS011;65200;49.500;8.654;2023-06-10T12:58:05;3.70;;;2.72;;
76377;SDS011;65200;49.500;8.654;2023-06-10T13:00:32;4.00;;;3.08;;
76377;SDS011;65200;49.500;8.654;2023-06-10T13:03:00;4.78;;;3.08;;
76377;SDS011;65200;49.500;8.654;2023-06-10T13:05:27;4.35;;;3.58;;
76377;SDS011;65200;49.500;8.654;2023-06-10T13:07:53;4.03;;;3.03;;
76377;SDS011;65200;49.500;8.654;2023-06-10T13:10:20;4.15;;;3.15;;
76377;SDS011;65200;49.500;8.654;2023-06-10T13:12:48;3.88;;;3.22;;
76377;SDS011;65200;49.500;8.654;2023-06-10T13:15:15;4.38;;;3.95;;
76377;SDS011;65200;49.500;8.654;2023-06-10T13:17:42;3.67;;;3.20;;
76377;SDS011;65200;49.500;8.654;2023-06-10T13:20:09;4.20;;;3.10;;
76377;SDS011;65200;49.500;8.654;2023-06-10T13:22:35;7.68;;;6.97;;
76377;SDS011;65200;49.500;8.654;2023-06-10T13:25:02;4.47;;;4.03;;
76377;SDS011;65200;49.500;8.654;2023-06-10T13:29:57;3.33;;;2.95;;
76377;SDS011;65200;49.500;8.654;2023-06-10T13:32:23;4.45;;;2.97;;
76377;SDS011;65200;49.500;8.654;2023-06-10T13:34:50;3.72;;;2.90;;
76377;SDS011;65200;49.500;8.654;2023-06-10T13:37:18;4.00;;;3.00;;
76377;SDS011;65200;49.500;8.654;2023-06-10T13:42:13;3.20;;;2.88;;
76377;SDS011;65200;49.500;8.654;2023-06-10T13:44:39;3.92;;;3.28;;
76377;SDS011;65200;49.500;8.654;2023-06-10T13:47:07;3.95;;;2.90;;
76377;SDS011;65200;49.500;8.654;2023-06-10T13:49:34;3.67;;;3.33;;
76377;SDS011;65200;49.500;8.654;2023-06-10T13:52:00;4.97;;;3.13;;
76377;SDS011;65200;49.500;8.654;2023-06-10T13:54:27;3.60;;;2.78;;
76377;SDS011;65200;49.500;8.654;2023-06-10T13:56:54;3.90;;;3.13;;
76377;SDS011;65200;49.500;8.654;2023-06-10T13:59:20;3.75;;;3.03;;
76377;SDS011;65200;49.500;8.654;2023-06-10T14:01:47;3.60;;;2.80;;
76377;SDS011;65200;49.500;8.654;2023-06-10T14:06:42;4.28;;;3.03;;
76377;SDS011;65200;49.500;8.654;2023-06-10T14:09:08;3.90;;;3.20;;
76377;SDS011;65200;49.500;8.654;2023-06-10T14:11:35;3.30;;;2.92;;
76377;SDS011;65200;49.500;8.654;2023-06-10T14:14:01;3.40;;;2.70;;
76377;SDS011;65200;49.500;8.654;2023-06-10T14:16:28;3.85;;;2.83;;
76377;SDS011;65200;49.500;8.654;2023-06-10T14:18:54;5.50;;;3.25;;
76377;SDS011;65200;49.500;8.654;2023-06-10T14:21:22;3.35;;;3.05;;
76377;SDS011;65200;49.500;8.654;2023-06-10T14:23:49;4.10;;;3.15;;
76377;SDS011;65200;49.500;8.654;2023-06-10T14:26:16;3.20;;;2.80;;
76377;SDS011;65200;49.500;8.654;2023-06-10T14:28:43;3.53;;;2.90;;
76377;SDS011;65200;49.500;8.654;2023-06-10T14:31:09;3.70;;;3.00;;
76377;SDS011;65200;49.500;8.654;2023-06-10T14:33:36;3.75;;;2.83;;
76377;SDS011;65200;49.500;8.654;2023-06-10T14:36:02;3.45;;;2.60;;
76377;SDS011;65200;49.500;8.654;2023-06-10T14:38:30;3.42;;;2.90;;
76377;SDS011;65200;49.500;8.654;2023-06-10T14:40:57;3.35;;;2.85;;
76377;SDS011;65200;49.500;8.654;2023-06-10T14:43:23;3.70;;;3.05;;
76377;SDS011;65200;49.500;8.654;2023-06-10T14:45:50;3.85;;;2.83;;
76377;SDS011;65200;49.500;8.654;2023-06-10T14:48:17;3.75;;;3.28;;
76377;SDS011;65200;49.500;8.654;2023-06-10T14:50:43;4.57;;;3.67;;
76377;SDS011;65200;49.500;8.654;2023-06-10T14:53:15;4.38;;;3.05;;
76377;SDS011;65200;49.500;8.654;2023-06-10T14:55:43;3.50;;;2.95;;
76377;SDS011;65200;49.500;8.654;2023-06-10T14:58:09;3.58;;;3.13;;
76377;SDS011;65200;49.500;8.654;2023-06-10T15:00:36;3.70;;;3.30;;
76377;SDS011;65200;49.500;8.654;2023-06-10T15:03:02;3.10;;;2.80;;
76377;SDS011;65200;49.500;8.654;2023-06-10T15:05:29;4.53;;;3.60;;
76377;SDS011;65200;49.500;8.654;2023-06-10T15:07:55;5.30;;;3.17;;
76377;SDS011;65200;49.500;8.654;2023-06-10T15:10:22;3.75;;;2.90;;
76377;SDS011;65200;49.500;8.654;2023-06-10T15:12:50;3.80;;;3.15;;
76377;SDS011;65200;49.500;8.654;2023-06-10T15:15:20;3.10;;;2.50;;